createdAt,value
2022-08-10T00:01:03.852Z,99.90
2022-08-10T00:03:33.577Z,99.90
2022-08-10T00:06:01.870Z,99.90
2022-08-10T00:08:30.132Z,99.90
2022-08-10T00:10:58.954Z,99.90
2022-08-10T00:13:28.088Z,99.90
2022-08-10T00:15:56.448Z,99.90
2022-08-10T00:18:34.933Z,99.90
2022-08-10T00:21:05.801Z,99.90
2022-08-10T00:23:34.381Z,99.90
2022-08-10T00:26:03.282Z,99.90
2022-08-10T00:28:32.075Z,99.90
2022-08-10T00:31:00.637Z,99.90
2022-08-10T00:33:29.012Z,99.90
2022-08-10T00:35:57.434Z,99.90
2022-08-10T00:38:27.135Z,99.90
2022-08-10T00:40:55.537Z,99.90
2022-08-10T00:43:25.240Z,99.90
2022-08-10T00:45:59.078Z,99.90
2022-08-10T00:48:30.264Z,99.90
2022-08-10T00:51:00.421Z,99.90
2022-08-10T00:53:30.486Z,99.90
2022-08-10T00:57:12.822Z,99.90
2022-08-10T00:58:48.178Z,99.90
2022-08-10T01:02:08.857Z,99.90
2022-08-10T01:04:58.637Z,99.90
2022-08-10T01:07:15.711Z,99.90
2022-08-10T01:09:57.421Z,99.90
2022-08-10T01:12:47.196Z,99.90
2022-08-10T01:15:23.832Z,99.90
2022-08-10T01:17:57.489Z,99.90
2022-08-10T01:20:35.671Z,99.90
2022-08-10T01:23:43.589Z,99.90
2022-08-10T01:26:32.007Z,99.90
2022-08-10T01:29:17.400Z,99.90
2022-08-10T01:31:52.481Z,99.90
2022-08-10T01:34:25.242Z,99.90
2022-08-10T01:37:04.277Z,99.90
2022-08-10T01:39:38.559Z,99.90
2022-08-10T01:42:08.419Z,99.90
2022-08-10T01:44:39.880Z,99.90
2022-08-10T01:47:30.049Z,99.90
2022-08-10T01:50:03.399Z,99.90
2022-08-10T01:52:33.393Z,99.90
2022-08-10T01:55:01.916Z,99.90
2022-08-10T01:57:32.987Z,99.90
2022-08-10T02:00:03.705Z,99.90
2022-08-10T02:02:37.522Z,99.90
2022-08-10T02:05:08.656Z,99.90
2022-08-10T02:07:38.906Z,99.90
2022-08-10T02:10:14.679Z,99.90
2022-08-10T02:12:45.638Z,99.90
2022-08-10T02:15:17.637Z,99.90
2022-08-10T02:18:00.527Z,99.90
2022-08-10T02:20:34.698Z,99.90
2022-08-10T02:23:06.421Z,99.90
2022-08-10T02:25:40.936Z,99.90
2022-08-10T02:28:29.704Z,99.90
2022-08-10T02:31:02.853Z,99.90
2022-08-10T02:33:33.951Z,99.90
2022-08-10T02:36:07.367Z,99.90
2022-08-10T02:38:59.800Z,99.90
2022-08-10T02:45:01.309Z,99.90
2022-08-10T02:45:22.801Z,99.90
2022-08-10T02:47:23.670Z,99.90
2022-08-10T02:50:00.093Z,99.90
2022-08-10T02:52:36.506Z,99.90
2022-08-10T02:55:18.121Z,99.90
2022-08-10T02:58:15.334Z,99.90
2022-08-10T03:00:48.217Z,99.90
2022-08-10T03:03:21.033Z,99.90
2022-08-10T03:05:55.664Z,99.90
2022-08-10T03:08:31.939Z,99.90
2022-08-10T03:11:03.094Z,99.90
2022-08-10T03:13:33.382Z,99.90
2022-08-10T03:16:03.626Z,99.90
2022-08-10T03:18:34.666Z,99.90
2022-08-10T03:21:08.874Z,99.90
2022-08-10T03:23:42.527Z,99.90
2022-08-10T03:26:11.871Z,99.90
2022-08-10T03:28:40.467Z,99.90
2022-08-10T03:31:09.349Z,99.90
2022-08-10T03:33:40.974Z,99.90
2022-08-10T03:36:42.044Z,99.90
2022-08-10T03:38:59.934Z,99.90
2022-08-10T03:41:35.537Z,99.90
2022-08-10T03:44:07.224Z,99.90
2022-08-10T03:46:38.115Z,99.90
2022-08-10T03:49:07.053Z,99.90
2022-08-10T03:51:38.001Z,99.90
2022-08-10T03:54:07.650Z,99.90
2022-08-10T03:56:38.342Z,99.90
2022-08-10T03:59:07.929Z,99.90
2022-08-10T04:02:46.822Z,99.90
2022-08-10T04:04:26.051Z,99.90
2022-08-10T04:06:58.260Z,99.90
2022-08-10T04:09:53.504Z,99.90
2022-08-10T04:12:19.730Z,99.90
2022-08-10T04:14:50.522Z,99.90
2022-08-10T04:18:04.194Z,99.90
2022-08-10T04:20:19.566Z,99.90
2022-08-10T04:22:53.203Z,99.90
2022-08-10T04:25:23.755Z,99.90
2022-08-10T04:27:53.396Z,99.90
2022-08-10T04:30:22.153Z,99.90
2022-08-10T04:32:54.829Z,99.90
2022-08-10T04:35:24.927Z,99.90
2022-08-10T04:37:57.027Z,99.90
2022-08-10T04:40:30.217Z,99.90
2022-08-10T04:43:11.246Z,99.90
2022-08-10T04:45:48.263Z,99.90
2022-08-10T04:48:42.813Z,99.90
2022-08-10T04:51:16.946Z,99.90
2022-08-10T04:54:06.125Z,99.90
2022-08-10T04:56:39.312Z,99.90
2022-08-10T04:59:09.175Z,99.90
2022-08-10T05:02:28.630Z,99.90
2022-08-10T05:04:37.515Z,99.90
2022-08-10T05:07:08.750Z,99.90
2022-08-10T05:10:02.781Z,99.90
2022-08-10T05:12:27.456Z,99.90
2022-08-10T05:14:55.896Z,99.90
2022-08-10T05:17:24.907Z,99.90
2022-08-10T05:20:04.283Z,99.90
2022-08-10T05:22:40.446Z,99.90
2022-08-10T05:25:13.069Z,99.90
2022-08-10T05:27:42.557Z,99.90
2022-08-10T05:30:13.534Z,99.90
2022-08-10T05:32:57.716Z,99.90
2022-08-10T05:35:56.337Z,99.90
2022-08-10T05:38:18.967Z,99.90
2022-08-10T05:40:50.307Z,99.90
2022-08-10T05:43:21.061Z,99.90
2022-08-10T05:46:16.614Z,99.90
2022-08-10T05:48:57.852Z,99.90
2022-08-10T05:51:30.256Z,99.90
2022-08-10T05:54:04.665Z,99.90
2022-08-10T05:56:55.441Z,99.90
2022-08-10T06:00:35.890Z,99.90
2022-08-10T06:02:30.914Z,99.90
2022-08-10T06:05:11.883Z,99.90
2022-08-10T06:07:46.045Z,99.90
2022-08-10T06:10:31.195Z,99.90
2022-08-10T06:13:30.025Z,99.90
2022-08-10T06:16:06.702Z,99.90
2022-08-10T06:18:35.562Z,99.90
2022-08-10T06:21:04.613Z,99.90
2022-08-10T06:23:33.979Z,99.90
2022-08-10T06:26:11.375Z,99.90
2022-08-10T06:29:02.103Z,99.90
2022-08-10T06:31:47.655Z,99.90
2022-08-10T06:34:20.369Z,99.90
2022-08-10T06:36:49.812Z,99.90
2022-08-10T06:39:35.236Z,99.90
2022-08-10T06:42:16.602Z,99.90
2022-08-10T06:45:06.244Z,99.90
2022-08-10T06:47:40.325Z,99.90
2022-08-10T06:50:45.306Z,99.90
2022-08-10T06:53:14.601Z,99.90
2022-08-10T06:55:55.616Z,99.90
2022-08-10T06:58:30.252Z,99.90
2022-08-10T07:01:03.058Z,99.90
2022-08-10T07:03:37.742Z,99.90
2022-08-10T07:06:08.892Z,99.90
2022-08-10T07:08:39.298Z,99.90
2022-08-10T07:11:11.983Z,99.90
2022-08-10T07:14:17.315Z,99.90
2022-08-10T07:16:32.939Z,99.90
2022-08-10T07:19:02.571Z,99.90
2022-08-10T07:21:33.437Z,99.90
2022-08-10T07:24:04.673Z,99.90
2022-08-10T07:26:34.725Z,99.90
2022-08-10T07:29:04.688Z,99.90
2022-08-10T07:31:55.891Z,99.90
2022-08-10T07:34:29.905Z,99.90
2022-08-10T07:37:02.831Z,99.90
2022-08-10T07:40:03.595Z,99.90
2022-08-10T07:42:24.160Z,99.90
2022-08-10T07:44:53.026Z,99.90
2022-08-10T07:47:52.869Z,99.90
2022-08-10T07:50:20.459Z,99.90
2022-08-10T07:52:50.531Z,99.90
2022-08-10T07:56:04.328Z,99.90
2022-08-10T07:58:11.320Z,99.90
2022-08-10T08:00:41.648Z,99.90
2022-08-10T08:03:15.098Z,99.90
2022-08-10T08:05:58.823Z,99.90
2022-08-10T08:08:34.646Z,99.90
2022-08-10T08:11:04.305Z,99.90
2022-08-10T08:13:33.683Z,99.90
2022-08-10T08:16:19.571Z,99.90
2022-08-10T08:19:24.121Z,99.90
2022-08-10T08:24:30.228Z,99.90
2022-08-10T08:24:36.410Z,99.90
2022-08-10T08:27:06.342Z,99.90
2022-08-10T08:29:38.541Z,99.90
2022-08-10T08:32:08.041Z,99.90
2022-08-10T08:34:40.572Z,99.20
2022-08-10T08:37:11.397Z,99.40
2022-08-10T08:39:41.544Z,99.90
2022-08-10T08:42:29.200Z,99.60
2022-08-10T08:45:11.055Z,99.80
2022-08-10T08:48:26.360Z,99.40
2022-08-10T08:51:09.140Z,99.90
2022-08-10T08:54:00.896Z,99.50
2022-08-10T08:56:41.570Z,99.00
2022-08-10T08:59:26.446Z,98.90
2022-08-10T09:02:10.214Z,98.40
2022-08-10T09:04:54.488Z,98.60
2022-08-10T09:08:02.265Z,98.70
2022-08-10T09:10:39.671Z,98.10
2022-08-10T09:13:15.163Z,97.00
2022-08-10T09:15:51.953Z,97.40
2022-08-10T09:18:26.953Z,96.00
2022-08-10T09:21:04.199Z,96.10
2022-08-10T09:24:04.409Z,96.20
2022-08-10T09:26:36.637Z,94.70
2022-08-10T09:29:13.025Z,94.40
2022-08-10T09:32:54.990Z,93.10
2022-08-10T09:36:22.449Z,92.90
2022-08-10T09:38:02.459Z,92.30
2022-08-10T09:41:00.689Z,91.10
2022-08-10T09:43:44.808Z,89.10
2022-08-10T09:46:27.193Z,89.60
2022-08-10T09:49:04.245Z,89.10
2022-08-10T09:51:48.199Z,85.40
2022-08-10T09:54:34.013Z,84.80
2022-08-10T09:57:44.122Z,84.60
2022-08-10T10:00:10.444Z,86.70
2022-08-10T10:02:56.111Z,83.20
2022-08-10T10:05:50.394Z,83.50
2022-08-10T10:08:29.132Z,80.80
2022-08-10T10:11:17.764Z,81.90
2022-08-10T10:14:04.358Z,79.10
2022-08-10T10:16:48.745Z,79.70
2022-08-10T10:19:31.054Z,78.40
2022-08-10T10:22:36.041Z,79.80
2022-08-10T10:25:19.691Z,76.90
2022-08-10T10:27:58.238Z,77.20
2022-08-10T10:30:33.235Z,77.70
2022-08-10T10:33:13.068Z,76.30
2022-08-10T10:35:49.878Z,73.60
2022-08-10T10:38:20.003Z,75.90
2022-08-10T10:41:01.526Z,78.00
2022-08-10T10:43:43.449Z,73.80
2022-08-10T10:46:25.755Z,74.40
2022-08-10T10:49:04.647Z,73.60
2022-08-10T10:51:44.446Z,72.80
2022-08-10T10:54:20.404Z,72.10
2022-08-10T10:57:02.665Z,73.30
2022-08-10T10:59:55.181Z,73.50
2022-08-10T11:02:43.558Z,75.40
2022-08-10T11:05:22.721Z,72.90
2022-08-10T11:07:55.737Z,70.20
2022-08-10T11:10:33.289Z,71.40
2022-08-10T11:14:25.179Z,71.10
2022-08-10T11:16:07.612Z,71.00
2022-08-10T11:18:54.386Z,69.00
2022-08-10T11:21:32.819Z,67.30
2022-08-10T11:24:48.366Z,68.60
2022-08-10T11:27:03.744Z,67.70
2022-08-10T11:29:43.874Z,70.50
2022-08-10T11:32:25.278Z,70.00
2022-08-10T11:35:11.487Z,69.40
2022-08-10T11:38:33.006Z,72.10
2022-08-10T11:40:52.267Z,69.40
2022-08-10T11:43:27.105Z,68.30
2022-08-10T11:46:07.853Z,67.40
2022-08-10T11:48:57.036Z,68.40
2022-08-10T11:51:39.028Z,67.20
2022-08-10T11:54:11.456Z,66.60
2022-08-10T11:56:47.931Z,64.40
2022-08-10T11:59:35.363Z,62.80
2022-08-10T12:02:05.635Z,62.30
2022-08-10T12:04:36.052Z,64.10
2022-08-10T12:08:54.912Z,63.90
2022-08-10T12:10:05.426Z,64.90
2022-08-10T12:12:48.261Z,63.20
2022-08-10T12:15:22.590Z,62.40
2022-08-10T12:17:55.804Z,62.60
2022-08-10T12:20:30.395Z,63.10
2022-08-10T12:23:13.032Z,63.10
2022-08-10T12:25:57.390Z,63.70
2022-08-10T12:28:50.749Z,61.80
2022-08-10T12:31:26.419Z,63.00
2022-08-10T12:34:06.854Z,61.60
2022-08-10T12:36:41.415Z,60.60
2022-08-10T12:39:18.278Z,61.40
2022-08-10T12:41:54.062Z,62.50
2022-08-10T12:44:41.367Z,60.90
2022-08-10T12:47:19.458Z,61.50
2022-08-10T12:50:30.666Z,60.30
2022-08-10T12:52:53.037Z,60.10
2022-08-10T12:55:23.859Z,60.60
2022-08-10T12:57:55.091Z,59.30
2022-08-10T13:00:30.735Z,59.80
2022-08-10T13:03:01.628Z,60.20
2022-08-10T13:06:01.922Z,59.90
2022-08-10T13:08:40.843Z,60.70
2022-08-10T13:12:35.168Z,60.20
2022-08-10T13:14:08.073Z,60.50
2022-08-10T13:16:37.500Z,60.50
2022-08-10T13:19:07.123Z,60.20
2022-08-10T13:21:39.097Z,58.40
2022-08-10T13:24:11.966Z,58.70
2022-08-10T13:27:26.088Z,59.30
2022-08-10T13:29:42.273Z,60.20
2022-08-10T13:32:12.416Z,59.90
2022-08-10T13:34:46.954Z,60.50
2022-08-10T13:37:20.220Z,61.10
2022-08-10T13:39:57.639Z,61.00
2022-08-10T13:42:35.032Z,62.70
2022-08-10T13:45:10.178Z,60.30
2022-08-10T13:47:48.934Z,60.20
2022-08-10T13:50:34.549Z,60.40
2022-08-10T13:53:11.611Z,60.10
2022-08-10T13:55:53.598Z,60.30
2022-08-10T13:58:29.971Z,61.60
2022-08-10T14:01:00.735Z,61.30
2022-08-10T14:03:34.856Z,61.50
2022-08-10T14:06:06.844Z,61.90
2022-08-10T14:08:36.819Z,60.90
2022-08-10T14:11:11.618Z,60.70
2022-08-10T14:13:46.539Z,62.20
2022-08-10T14:16:15.431Z,62.10
2022-08-10T14:18:45.911Z,60.90
2022-08-10T14:21:15.202Z,61.40
2022-08-10T14:23:51.860Z,61.00
2022-08-10T14:26:25.129Z,60.70
2022-08-10T14:28:58.175Z,60.70
2022-08-10T14:31:33.601Z,60.20
2022-08-10T14:34:05.545Z,59.90
2022-08-10T14:36:43.262Z,60.20
2022-08-10T14:39:16.631Z,60.70
2022-08-10T14:42:01.932Z,61.00
2022-08-10T14:44:49.506Z,60.00
2022-08-10T14:47:52.318Z,59.60
2022-08-10T14:50:16.774Z,59.30
2022-08-10T14:53:09.472Z,60.30
2022-08-10T14:55:58.979Z,59.90
2022-08-10T14:58:30.862Z,59.80
2022-08-10T15:01:02.205Z,59.60
2022-08-10T15:04:00.768Z,59.90
2022-08-10T15:06:30.911Z,60.20
2022-08-10T15:09:12.450Z,58.90
2022-08-10T15:12:13.992Z,59.40
2022-08-10T15:14:43.101Z,58.50
2022-08-10T15:17:17.086Z,57.70
2022-08-10T15:20:02.461Z,58.40
2022-08-10T15:22:38.688Z,57.40
2022-08-10T15:25:18.161Z,57.40
2022-08-10T15:27:53.522Z,57.00
2022-08-10T15:30:30.104Z,56.50
2022-08-10T15:33:21.049Z,57.70
2022-08-10T15:36:29.547Z,56.60
2022-08-10T15:39:01.097Z,56.90
2022-08-10T15:41:59.121Z,56.70
2022-08-10T15:44:38.477Z,56.70
2022-08-10T15:47:15.135Z,55.90
2022-08-10T15:49:53.406Z,56.00
2022-08-10T15:52:39.118Z,54.80
2022-08-10T15:55:41.199Z,54.20
2022-08-10T15:58:10.322Z,54.00
2022-08-10T16:00:45.261Z,53.80
2022-08-10T16:03:23.347Z,54.20
2022-08-10T16:06:01.441Z,54.80
2022-08-10T16:08:56.421Z,55.90
2022-08-10T16:11:38.096Z,55.70
2022-08-10T16:14:16.522Z,55.20
2022-08-10T16:16:50.478Z,56.20
2022-08-10T16:19:24.112Z,56.40
2022-08-10T16:22:33.816Z,56.20
2022-08-10T16:24:53.205Z,56.40
2022-08-10T16:27:23.718Z,56.70
2022-08-10T16:29:58.657Z,55.70
2022-08-10T16:32:29.797Z,55.30
2022-08-10T16:35:00.755Z,55.50
2022-08-10T16:37:56.646Z,55.60
2022-08-10T16:40:28.024Z,55.90
2022-08-10T16:42:57.259Z,56.10
2022-08-10T16:45:32.403Z,55.70
2022-08-10T16:48:02.071Z,55.80
2022-08-10T16:50:33.854Z,56.50
2022-08-10T16:53:06.979Z,56.30
2022-08-10T16:55:48.791Z,55.40
2022-08-10T16:58:25.306Z,56.00
2022-08-10T17:00:54.730Z,55.80
2022-08-10T17:04:07.086Z,56.20
2022-08-10T17:06:23.509Z,56.80
2022-08-10T17:08:55.549Z,56.30
2022-08-10T17:11:31.745Z,56.40
2022-08-10T17:14:01.793Z,56.60
2022-08-10T17:16:36.702Z,56.60
2022-08-10T17:19:11.626Z,56.80
2022-08-10T17:21:51.456Z,56.70
2022-08-10T17:24:25.199Z,56.60
2022-08-10T17:26:56.449Z,56.90
2022-08-10T17:29:57.672Z,56.80
2022-08-10T17:32:22.397Z,56.70
2022-08-10T17:34:57.177Z,57.40
2022-08-10T17:37:28.673Z,57.40
2022-08-10T17:40:02.311Z,56.80
2022-08-10T17:42:31.383Z,57.40
2022-08-10T17:45:00.297Z,57.30
2022-08-10T17:47:28.917Z,57.70
2022-08-10T17:49:59.040Z,57.30
2022-08-10T17:52:34.282Z,57.30
2022-08-10T17:55:06.759Z,57.40
2022-08-10T17:57:38.384Z,57.50
2022-08-10T18:00:10.811Z,57.30
2022-08-10T18:02:41.765Z,57.90
2022-08-10T18:05:13.652Z,58.00
2022-08-10T18:07:47.614Z,58.80
2022-08-10T18:10:19.877Z,58.60
2022-08-10T18:12:50.517Z,58.50
2022-08-10T18:15:23.328Z,59.30
2022-08-10T18:17:59.196Z,58.90
2022-08-10T18:20:35.664Z,59.30
2022-08-10T18:23:05.976Z,59.30
2022-08-10T18:25:39.140Z,59.30
2022-08-10T18:28:12.253Z,59.20
2022-08-10T18:30:48.314Z,59.10
2022-08-10T18:33:21.246Z,58.70
2022-08-10T18:35:52.332Z,58.90
2022-08-10T18:38:21.613Z,59.30
2022-08-10T18:40:57.850Z,59.30
2022-08-10T18:44:06.299Z,59.80
2022-08-10T18:46:27.076Z,59.80
2022-08-10T18:49:00.090Z,60.20
2022-08-10T18:51:34.249Z,60.90
2022-08-10T18:54:31.451Z,61.60
2022-08-10T18:57:18.903Z,61.70
2022-08-10T19:00:08.804Z,61.70
2022-08-10T19:03:08.154Z,61.50
2022-08-10T19:06:00.165Z,61.70
2022-08-10T19:08:55.954Z,62.20
2022-08-10T19:11:40.573Z,62.70
2022-08-10T19:14:17.387Z,63.10
2022-08-10T19:16:55.529Z,64.10
2022-08-10T19:19:36.748Z,63.20
2022-08-10T19:22:09.235Z,63.10
2022-08-10T19:24:49.268Z,63.40
2022-08-10T19:27:40.303Z,63.50
2022-08-10T19:30:14.093Z,63.50
2022-08-10T19:32:55.951Z,64.40
2022-08-10T19:36:03.990Z,64.20
2022-08-10T19:38:33.721Z,64.70
2022-08-10T19:41:11.845Z,64.90
2022-08-10T19:44:00.496Z,64.70
2022-08-10T19:46:42.065Z,64.70
2022-08-10T19:49:18.582Z,65.00
2022-08-10T19:51:56.679Z,65.10
2022-08-10T19:54:32.644Z,65.10
2022-08-10T19:57:10.399Z,65.50
2022-08-10T20:00:16.427Z,65.50
2022-08-10T20:03:00.763Z,65.90
2022-08-10T20:05:33.539Z,66.10
2022-08-10T20:08:08.719Z,66.10
2022-08-10T20:10:46.593Z,66.50
2022-08-10T20:13:22.490Z,66.60
2022-08-10T20:15:58.942Z,66.80
2022-08-10T20:18:36.054Z,67.10
2022-08-10T20:21:13.710Z,67.40
2022-08-10T20:23:55.127Z,67.90
2022-08-10T20:26:28.006Z,68.00
2022-08-10T20:29:06.804Z,68.20
2022-08-10T20:31:42.384Z,69.00
2022-08-10T20:34:19.162Z,69.10
2022-08-10T20:36:58.649Z,69.10
2022-08-10T20:39:40.671Z,69.30
2022-08-10T20:42:16.904Z,69.50
2022-08-10T20:44:57.497Z,69.80
2022-08-10T20:47:44.291Z,70.20
2022-08-10T20:50:30.800Z,70.60
2022-08-10T20:53:14.986Z,70.50
2022-08-10T20:55:53.870Z,70.50
2022-08-10T20:59:09.024Z,70.80
2022-08-10T21:02:07.253Z,70.90
2022-08-10T21:04:51.448Z,71.40
2022-08-10T21:08:06.318Z,71.30
2022-08-10T21:10:53.174Z,71.20
2022-08-10T21:13:36.691Z,71.60
2022-08-10T21:16:20.306Z,71.40
2022-08-10T21:19:03.571Z,71.60
2022-08-10T21:21:59.400Z,71.40
2022-08-10T21:24:36.618Z,71.50
2022-08-10T21:27:18.251Z,71.40
2022-08-10T21:30:08.539Z,71.40
2022-08-10T21:32:44.454Z,71.70
2022-08-10T21:35:37.041Z,72.40
2022-08-10T21:38:11.261Z,72.20
2022-08-10T21:41:18.053Z,73.40
2022-08-10T21:44:08.379Z,73.00
2022-08-10T21:47:02.720Z,73.20
2022-08-10T21:50:03.709Z,72.70
2022-08-10T21:53:00.877Z,73.20
2022-08-10T21:56:00.302Z,73.10
2022-08-10T21:58:52.544Z,73.30
2022-08-10T22:01:46.003Z,73.50
2022-08-10T22:04:38.304Z,73.70
2022-08-10T22:07:29.251Z,74.00
2022-08-10T22:10:22.835Z,74.00
2022-08-10T22:13:12.688Z,74.30
2022-08-10T22:16:11.171Z,74.60
2022-08-10T22:19:03.488Z,75.20
2022-08-10T22:22:04.293Z,75.40
2022-08-10T22:25:16.669Z,76.50
2022-08-10T22:28:07.241Z,77.20
2022-08-10T22:34:26.872Z,77.50
2022-08-10T22:37:25.892Z,76.40
2022-08-10T22:40:21.097Z,76.70
2022-08-10T22:43:12.542Z,77.20
2022-08-10T22:46:08.705Z,77.60
2022-08-10T22:49:02.066Z,77.80
2022-08-10T22:51:46.959Z,77.40
2022-08-10T22:54:46.467Z,77.60
2022-08-10T22:57:34.106Z,77.70
2022-08-10T23:00:14.198Z,78.40
2022-08-10T23:02:53.139Z,81.20
2022-08-10T23:05:30.606Z,81.70
2022-08-10T23:08:04.819Z,80.10
2022-08-10T23:10:40.346Z,81.70
2022-08-10T23:13:11.264Z,80.70
2022-08-10T23:16:08.612Z,80.80
2022-08-10T23:19:02.796Z,80.90
2022-08-10T23:22:04.367Z,82.00
2022-08-10T23:24:28.396Z,82.80
2022-08-10T23:26:58.072Z,82.10
2022-08-10T23:29:39.934Z,82.40
2022-08-10T23:32:31.831Z,84.80
2022-08-10T23:36:05.514Z,85.10
2022-08-10T23:37:57.644Z,85.10
2022-08-10T23:40:26.951Z,84.10
2022-08-10T23:42:57.959Z,83.90
2022-08-10T23:45:29.308Z,84.30
2022-08-10T23:48:21.215Z,86.70
2022-08-10T23:50:59.595Z,86.30
2022-08-10T23:53:31.253Z,88.90
2022-08-10T23:56:03.009Z,87.90
2022-08-10T23:58:38.771Z,87.20
